sensor_id;sensor_type;location;lat;lon;timestamp;temperature;humidity
48686;DHT22;34485;51.536;3.816;2023-03-01T00:00:19;1.80;99.90
48686;DHT22;34485;51.536;3.816;2023-03-01T00:02:45;1.80;99.90
48686;DHT22;34485;51.536;3.816;2023-03-01T00:05:10;1.70;99.90
48686;DHT22;34485;51.536;3.816;2023-03-01T00:07:36;1.70;99.90
48686;DHT22;34485;51.536;3.816;2023-03-01T00:10:02;1.70;99.90
48686;DHT22;34485;51.536;3.816;2023-03-01T00:12:27;1.70;99.90
48686;DHT22;34485;51.536;3.816;2023-03-01T00:14:53;1.70;99.90
48686;DHT22;34485;51.536;3.816;2023-03-01T00:17:19;1.70;99.90
48686;DHT22;34485;51.536;3.816;2023-03-01T00:19:44;1.60;99.90
48686;DHT22;34485;51.536;3.816;2023-03-01T00:22:10;1.60;99.90
48686;DHT22;34485;51.536;3.816;2023-03-01T00:24:35;1.70;99.90
48686;DHT22;34485;51.536;3.816;2023-03-01T00:27:01;1.60;99.90
48686;DHT22;34485;51.536;3.816;2023-03-01T00:29:27;1.60;99.90
48686;DHT22;34485;51.536;3.816;2023-03-01T00:31:52;1.60;99.90
48686;DHT22;34485;51.536;3.816;2023-03-01T00:34:18;1.60;99.90
48686;DHT22;34485;51.536;3.816;2023-03-01T00:36:44;1.60;99.90
48686;DHT22;34485;51.536;3.816;2023-03-01T00:39:14;1.60;99.90
48686;DHT22;34485;51.536;3.816;2023-03-01T00:41:40;1.60;99.90
48686;DHT22;34485;51.536;3.816;2023-03-01T00:44:06;1.60;99.90
48686;DHT22;34485;51.536;3.816;2023-03-01T00:46:32;1.50;99.90
48686;DHT22;34485;51.536;3.816;2023-03-01T00:48:57;1.50;99.90
48686;DHT22;34485;51.536;3.816;2023-03-01T00:51:26;1.50;99.90
48686;DHT22;34485;51.536;3.816;2023-03-01T00:53:53;1.50;99.90
48686;DHT22;34485;51.536;3.816;2023-03-01T00:56:19;1.40;99.90
48686;DHT22;34485;51.536;3.816;2023-03-01T00:58:45;1.40;99.90
48686;DHT22;34485;51.536;3.816;2023-03-01T01:01:14;1.40;99.90
48686;DHT22;34485;51.536;3.816;2023-03-01T01:03:50;1.40;99.90
48686;DHT22;34485;51.536;3.816;2023-03-01T01:06:25;1.40;99.90
48686;DHT22;34485;51.536;3.816;2023-03-01T01:08:52;1.40;99.90
48686;DHT22;34485;51.536;3.816;2023-03-01T01:11:18;1.40;99.90
48686;DHT22;34485;51.536;3.816;2023-03-01T01:13:45;1.40;99.90
48686;DHT22;34485;51.536;3.816;2023-03-01T01:16:11;1.40;99.90
48686;DHT22;34485;51.536;3.816;2023-03-01T01:18:37;1.50;99.90
48686;DHT22;34485;51.536;3.816;2023-03-01T01:21:08;1.40;99.90
48686;DHT22;34485;51.536;3.816;2023-03-01T01:23:34;1.40;99.90
48686;DHT22;34485;51.536;3.816;2023-03-01T01:26:09;1.40;99.90
48686;DHT22;34485;51.536;3.816;2023-03-01T01:28:35;1.40;99.90
48686;DHT22;34485;51.536;3.816;2023-03-01T01:31:01;1.50;99.90
48686;DHT22;34485;51.536;3.816;2023-03-01T01:33:27;1.50;99.90
48686;DHT22;34485;51.536;3.816;2023-03-01T01:35:53;1.50;99.90
48686;DHT22;34485;51.536;3.816;2023-03-01T01:38:19;1.50;99.90
48686;DHT22;34485;51.536;3.816;2023-03-01T01:40:45;1.40;99.90
48686;DHT22;34485;51.536;3.816;2023-03-01T01:45:45;1.50;99.90
48686;DHT22;34485;51.536;3.816;2023-03-01T01:48:16;1.50;99.90
48686;DHT22;34485;51.536;3.816;2023-03-01T01:50:44;1.50;99.90
48686;DHT22;34485;51.536;3.816;2023-03-01T01:53:14;1.40;99.90
48686;DHT22;34485;51.536;3.816;2023-03-01T01:55:45;1.40;99.90
48686;DHT22;34485;51.536;3.816;2023-03-01T01:58:14;1.40;99.90
48686;DHT22;34485;51.536;3.816;2023-03-01T02:00:40;1.40;99.90
48686;DHT22;34485;51.536;3.816;2023-03-01T02:03:14;1.30;99.90
48686;DHT22;34485;51.536;3.816;2023-03-01T02:08:12;1.30;99.90
48686;DHT22;34485;51.536;3.816;2023-03-01T02:10:39;1.30;99.90
48686;DHT22;34485;51.536;3.816;2023-03-01T02:13:06;1.30;99.90
48686;DHT22;34485;51.536;3.816;2023-03-01T02:15:36;1.30;99.90
48686;DHT22;34485;51.536;3.816;2023-03-01T02:18:04;1.30;99.90
48686;DHT22;34485;51.536;3.816;2023-03-01T02:20:41;1.30;99.90
48686;DHT22;34485;51.536;3.816;2023-03-01T02:23:11;1.30;99.90
48686;DHT22;34485;51.536;3.816;2023-03-01T02:26:02;1.30;99.90
48686;DHT22;34485;51.536;3.816;2023-03-01T02:28:37;1.30;99.90
48686;DHT22;34485;51.536;3.816;2023-03-01T02:31:05;1.20;99.90
48686;DHT22;34485;51.536;3.816;2023-03-01T02:33:51;1.20;99.90
48686;DHT22;34485;51.536;3.816;2023-03-01T02:36:24;1.20;99.90
48686;DHT22;34485;51.536;3.816;2023-03-01T02:38:52;1.20;99.90
48686;DHT22;34485;51.536;3.816;2023-03-01T02:41:20;1.20;99.90
48686;DHT22;34485;51.536;3.816;2023-03-01T02:43:46;1.20;99.90
48686;DHT22;34485;51.536;3.816;2023-03-01T02:46:21;1.20;99.90
48686;DHT22;34485;51.536;3.816;2023-03-01T02:48:52;1.20;99.90
48686;DHT22;34485;51.536;3.816;2023-03-01T02:56:51;1.20;99.90
48686;DHT22;34485;51.536;3.816;2023-03-01T02:59:20;1.10;99.90
48686;DHT22;34485;51.536;3.816;2023-03-01T03:01:46;1.10;99.90
48686;DHT22;34485;51.536;3.816;2023-03-01T03:04:17;1.00;99.90
48686;DHT22;34485;51.536;3.816;2023-03-01T03:06:44;1.00;99.90
48686;DHT22;34485;51.536;3.816;2023-03-01T03:09:10;0.90;99.90
48686;DHT22;34485;51.536;3.816;2023-03-01T03:11:36;0.90;99.90
48686;DHT22;34485;51.536;3.816;2023-03-01T03:14:02;0.80;99.90
48686;DHT22;34485;51.536;3.816;2023-03-01T03:16:28;0.80;99.90
48686;DHT22;34485;51.536;3.816;2023-03-01T03:18:55;0.80;99.90
48686;DHT22;34485;51.536;3.816;2023-03-01T03:21:31;0.80;99.90
48686;DHT22;34485;51.536;3.816;2023-03-01T03:23:58;0.80;99.90
48686;DHT22;34485;51.536;3.816;2023-03-01T03:26:23;0.80;99.90
48686;DHT22;34485;51.536;3.816;2023-03-01T03:28:49;0.80;99.90
48686;DHT22;34485;51.536;3.816;2023-03-01T03:31:15;0.90;99.90
48686;DHT22;34485;51.536;3.816;2023-03-01T03:33:40;0.90;99.90
48686;DHT22;34485;51.536;3.816;2023-03-01T03:36:06;0.90;99.90
48686;DHT22;34485;51.536;3.816;2023-03-01T03:38:32;1.00;99.90
48686;DHT22;34485;51.536;3.816;2023-03-01T03:41:06;1.00;99.90
48686;DHT22;34485;51.536;3.816;2023-03-01T03:43:34;1.00;99.90
48686;DHT22;34485;51.536;3.816;2023-03-01T03:46:01;1.00;99.90
48686;DHT22;34485;51.536;3.816;2023-03-01T03:48:34;1.00;99.90
48686;DHT22;34485;51.536;3.816;2023-03-01T03:51:00;1.00;99.90
48686;DHT22;34485;51.536;3.816;2023-03-01T03:53:26;1.00;99.90
48686;DHT22;34485;51.536;3.816;2023-03-01T03:55:53;1.00;99.90
48686;DHT22;34485;51.536;3.816;2023-03-01T03:58:21;1.00;99.90
48686;DHT22;34485;51.536;3.816;2023-03-01T04:00:48;1.00;99.90
48686;DHT22;34485;51.536;3.816;2023-03-01T04:03:16;1.00;99.90
48686;DHT22;34485;51.536;3.816;2023-03-01T04:05:42;1.00;99.90
48686;DHT22;34485;51.536;3.816;2023-03-01T04:08:08;1.00;99.90
48686;DHT22;34485;51.536;3.816;2023-03-01T04:10:45;0.90;99.90
48686;DHT22;34485;51.536;3.816;2023-03-01T04:13:13;1.00;99.90
48686;DHT22;34485;51.536;3.816;2023-03-01T04:15:40;1.00;99.90
48686;DHT22;34485;51.536;3.816;2023-03-01T04:18:06;1.00;99.90
48686;DHT22;34485;51.536;3.816;2023-03-01T04:20:34;1.00;99.90
48686;DHT22;34485;51.536;3.816;2023-03-01T04:23:13;1.00;99.90
48686;DHT22;34485;51.536;3.816;2023-03-01T04:28:24;1.00;99.90
48686;DHT22;34485;51.536;3.816;2023-03-01T04:30:51;1.00;99.90
48686;DHT22;34485;51.536;3.816;2023-03-01T04:33:16;1.00;99.90
48686;DHT22;34485;51.536;3.816;2023-03-01T04:35:42;1.00;99.90
48686;DHT22;34485;51.536;3.816;2023-03-01T04:38:08;1.00;99.90
48686;DHT22;34485;51.536;3.816;2023-03-01T04:40:34;1.00;99.90
48686;DHT22;34485;51.536;3.816;2023-03-01T04:43:00;0.90;99.90
48686;DHT22;34485;51.536;3.816;2023-03-01T04:45:25;0.90;99.90
48686;DHT22;34485;51.536;3.816;2023-03-01T04:47:51;0.90;99.90
48686;DHT22;34485;51.536;3.816;2023-03-01T04:50:20;0.90;99.90
48686;DHT22;34485;51.536;3.816;2023-03-01T04:52:47;0.90;99.90
48686;DHT22;34485;51.536;3.816;2023-03-01T04:55:13;0.90;99.90
48686;DHT22;34485;51.536;3.816;2023-03-01T04:57:39;0.90;99.90
48686;DHT22;34485;51.536;3.816;2023-03-01T05:00:07;0.90;99.90
48686;DHT22;34485;51.536;3.816;2023-03-01T05:02:57;1.00;99.90
48686;DHT22;34485;51.536;3.816;2023-03-01T05:05:27;1.00;99.90
48686;DHT22;34485;51.536;3.816;2023-03-01T05:07:54;0.90;99.90
48686;DHT22;34485;51.536;3.816;2023-03-01T05:10:20;0.80;99.90
48686;DHT22;34485;51.536;3.816;2023-03-01T05:12:46;0.80;99.90
48686;DHT22;34485;51.536;3.816;2023-03-01T05:15:12;0.80;99.90
48686;DHT22;34485;51.536;3.816;2023-03-01T05:17:37;0.80;99.90
48686;DHT22;34485;51.536;3.816;2023-03-01T05:20:03;0.90;99.90
48686;DHT22;34485;51.536;3.816;2023-03-01T05:22:34;0.90;99.90
48686;DHT22;34485;51.536;3.816;2023-03-01T05:24:59;0.90;99.90
48686;DHT22;34485;51.536;3.816;2023-03-01T05:27:25;0.80;99.90
48686;DHT22;34485;51.536;3.816;2023-03-01T05:29:50;0.80;99.90
48686;DHT22;34485;51.536;3.816;2023-03-01T05:32:16;0.70;99.90
48686;DHT22;34485;51.536;3.816;2023-03-01T05:34:42;0.70;99.90
48686;DHT22;34485;51.536;3.816;2023-03-01T05:37:08;0.60;99.90
48686;DHT22;34485;51.536;3.816;2023-03-01T05:39:34;0.60;99.90
48686;DHT22;34485;51.536;3.816;2023-03-01T05:42:00;0.60;99.90
48686;DHT22;34485;51.536;3.816;2023-03-01T05:44:27;0.60;99.90
48686;DHT22;34485;51.536;3.816;2023-03-01T05:46:52;0.70;99.90
48686;DHT22;34485;51.536;3.816;2023-03-01T05:49:18;0.70;99.90
48686;DHT22;34485;51.536;3.816;2023-03-01T05:51:48;0.70;99.90
48686;DHT22;34485;51.536;3.816;2023-03-01T05:54:14;0.70;99.90
48686;DHT22;34485;51.536;3.816;2023-03-01T05:56:40;0.70;99.90
48686;DHT22;34485;51.536;3.816;2023-03-01T05:59:06;0.80;99.90
48686;DHT22;34485;51.536;3.816;2023-03-01T06:01:32;0.80;99.90
48686;DHT22;34485;51.536;3.816;2023-03-01T06:03:58;0.80;99.90
48686;DHT22;34485;51.536;3.816;2023-03-01T06:06:24;0.80;99.90
48686;DHT22;34485;51.536;3.816;2023-03-01T06:08:51;0.90;99.90
48686;DHT22;34485;51.536;3.816;2023-03-01T06:11:17;0.90;99.90
48686;DHT22;34485;51.536;3.816;2023-03-01T06:13:43;0.90;99.90
48686;DHT22;34485;51.536;3.816;2023-03-01T06:16:09;0.90;99.90
48686;DHT22;34485;51.536;3.816;2023-03-01T06:18:36;0.90;99.90
48686;DHT22;34485;51.536;3.816;2023-03-01T06:21:02;0.90;99.90
48686;DHT22;34485;51.536;3.816;2023-03-01T06:23:28;0.90;99.90
48686;DHT22;34485;51.536;3.816;2023-03-01T06:25:54;0.80;99.90
48686;DHT22;34485;51.536;3.816;2023-03-01T06:28:20;0.80;99.90
48686;DHT22;34485;51.536;3.816;2023-03-01T06:30:45;0.80;99.90
48686;DHT22;34485;51.536;3.816;2023-03-01T06:33:11;0.70;99.90
48686;DHT22;34485;51.536;3.816;2023-03-01T06:35:37;0.30;99.90
48686;DHT22;34485;51.536;3.816;2023-03-01T06:38:03;0.10;99.90
48686;DHT22;34485;51.536;3.816;2023-03-01T06:40:30;0.00;99.90
48686;DHT22;34485;51.536;3.816;2023-03-01T06:42:57;-0.10;99.90
48686;DHT22;34485;51.536;3.816;2023-03-01T06:45:23;-0.20;99.90
48686;DHT22;34485;51.536;3.816;2023-03-01T06:47:50;-0.10;99.90
48686;DHT22;34485;51.536;3.816;2023-03-01T06:50:16;-0.10;99.90
48686;DHT22;34485;51.536;3.816;2023-03-01T06:52:42;0.10;99.90
48686;DHT22;34485;51.536;3.816;2023-03-01T06:55:10;0.20;99.90
48686;DHT22;34485;51.536;3.816;2023-03-01T06:57:36;0.40;99.90
48686;DHT22;34485;51.536;3.816;2023-03-01T07:00:03;0.60;99.90
48686;DHT22;34485;51.536;3.816;2023-03-01T07:02:29;0.70;99.90
48686;DHT22;34485;51.536;3.816;2023-03-01T07:04:55;0.80;99.90
48686;DHT22;34485;51.536;3.816;2023-03-01T07:07:20;0.90;99.90
48686;DHT22;34485;51.536;3.816;2023-03-01T07:09:46;1.10;99.90
48686;DHT22;34485;51.536;3.816;2023-03-01T07:12:12;1.10;99.90
48686;DHT22;34485;51.536;3.816;2023-03-01T07:14:37;1.20;99.90
48686;DHT22;34485;51.536;3.816;2023-03-01T07:17:03;1.30;99.90
48686;DHT22;34485;51.536;3.816;2023-03-01T07:19:29;1.40;99.90
48686;DHT22;34485;51.536;3.816;2023-03-01T07:21:54;1.50;99.90
48686;DHT22;34485;51.536;3.816;2023-03-01T07:24:21;1.60;99.90
48686;DHT22;34485;51.536;3.816;2023-03-01T07:26:51;1.70;99.90
48686;DHT22;34485;51.536;3.816;2023-03-01T07:29:17;1.80;99.90
48686;DHT22;34485;51.536;3.816;2023-03-01T07:31:43;1.80;99.90
48686;DHT22;34485;51.536;3.816;2023-03-01T07:34:08;1.90;99.90
48686;DHT22;34485;51.536;3.816;2023-03-01T07:36:34;2.00;99.90
48686;DHT22;34485;51.536;3.816;2023-03-01T07:38:59;2.10;99.90
48686;DHT22;34485;51.536;3.816;2023-03-01T07:41:27;2.10;99.90
48686;DHT22;34485;51.536;3.816;2023-03-01T07:43:53;2.20;99.90
48686;DHT22;34485;51.536;3.816;2023-03-01T07:46:19;2.20;99.90
48686;DHT22;34485;51.536;3.816;2023-03-01T07:48:44;2.30;99.90
48686;DHT22;34485;51.536;3.816;2023-03-01T07:51:10;2.40;99.90
48686;DHT22;34485;51.536;3.816;2023-03-01T07:53:36;2.50;99.90
48686;DHT22;34485;51.536;3.816;2023-03-01T07:58:27;2.70;99.90
48686;DHT22;34485;51.536;3.816;2023-03-01T08:00:53;2.90;99.90
48686;DHT22;34485;51.536;3.816;2023-03-01T08:03:18;3.00;99.90
48686;DHT22;34485;51.536;3.816;2023-03-01T08:05:44;3.40;99.90
48686;DHT22;34485;51.536;3.816;2023-03-01T08:10:36;4.60;99.90
48686;DHT22;34485;51.536;3.816;2023-03-01T08:15:27;5.80;99.90
48686;DHT22;34485;51.536;3.816;2023-03-01T08:17:53;6.30;99.90
48686;DHT22;34485;51.536;3.816;2023-03-01T08:20:19;6.70;99.90
48686;DHT22;34485;51.536;3.816;2023-03-01T08:22:44;6.90;99.90
48686;DHT22;34485;51.536;3.816;2023-03-01T08:25:10;7.10;99.90
48686;DHT22;34485;51.536;3.816;2023-03-01T08:27:35;7.20;99.90
48686;DHT22;34485;51.536;3.816;2023-03-01T08:30:01;7.50;99.90
48686;DHT22;34485;51.536;3.816;2023-03-01T08:32:26;7.50;99.10
48686;DHT22;34485;51.536;3.816;2023-03-01T08:34:52;7.70;98.90
48686;DHT22;34485;51.536;3.816;2023-03-01T08:39:43;8.00;99.90
48686;DHT22;34485;51.536;3.816;2023-03-01T08:42:09;8.10;98.10
48686;DHT22;34485;51.536;3.816;2023-03-01T08:44:34;8.40;99.90
48686;DHT22;34485;51.536;3.816;2023-03-01T08:47:00;8.30;97.20
48686;DHT22;34485;51.536;3.816;2023-03-01T08:49:27;8.20;97.90
48686;DHT22;34485;51.536;3.816;2023-03-01T08:51:53;8.20;96.50
48686;DHT22;34485;51.536;3.816;2023-03-01T08:54:21;8.20;96.90
48686;DHT22;34485;51.536;3.816;2023-03-01T08:56:47;8.30;96.70
48686;DHT22;34485;51.536;3.816;2023-03-01T08:59:14;8.30;96.80
48686;DHT22;34485;51.536;3.816;2023-03-01T09:01:40;8.50;96.30
48686;DHT22;34485;51.536;3.816;2023-03-01T09:04:08;8.50;96.10
48686;DHT22;34485;51.536;3.816;2023-03-01T09:09:02;8.40;95.20
48686;DHT22;34485;51.536;3.816;2023-03-01T09:11:28;8.60;95.40
48686;DHT22;34485;51.536;3.816;2023-03-01T09:13:54;8.50;93.80
48686;DHT22;34485;51.536;3.816;2023-03-01T09:26:13;9.20;93.40
48686;DHT22;34485;51.536;3.816;2023-03-01T09:33:38;9.30;99.90
48686;DHT22;34485;51.536;3.816;2023-03-01T09:38:32;8.90;99.90
48686;DHT22;34485;51.536;3.816;2023-03-01T09:43:46;8.70;91.50
48686;DHT22;34485;51.536;3.816;2023-03-01T09:48:48;8.80;92.80
48686;DHT22;34485;51.536;3.816;2023-03-01T09:51:19;8.90;92.10
48686;DHT22;34485;51.536;3.816;2023-03-01T09:53:49;8.80;91.30
48686;DHT22;34485;51.536;3.816;2023-03-01T09:56:22;9.10;99.90
48686;DHT22;34485;51.536;3.816;2023-03-01T09:59:29;9.30;99.90
48686;DHT22;34485;51.536;3.816;2023-03-01T10:02:23;9.10;91.90
48686;DHT22;34485;51.536;3.816;2023-03-01T10:04:51;9.30;94.40
48686;DHT22;34485;51.536;3.816;2023-03-01T10:09:53;9.30;91.00
48686;DHT22;34485;51.536;3.816;2023-03-01T10:12:22;9.20;90.60
48686;DHT22;34485;51.536;3.816;2023-03-01T10:20:16;9.50;90.50
48686;DHT22;34485;51.536;3.816;2023-03-01T10:22:42;9.50;92.90
48686;DHT22;34485;51.536;3.816;2023-03-01T10:30:18;9.80;99.90
48686;DHT22;34485;51.536;3.816;2023-03-01T10:35:23;9.70;99.80
48686;DHT22;34485;51.536;3.816;2023-03-01T10:50:32;9.10;99.90
48686;DHT22;34485;51.536;3.816;2023-03-01T11:00:52;8.90;89.70
48686;DHT22;34485;51.536;3.816;2023-03-01T11:03:38;8.80;89.10
48686;DHT22;34485;51.536;3.816;2023-03-01T11:11:10;8.70;89.60
48686;DHT22;34485;51.536;3.816;2023-03-01T11:13:54;8.60;90.20
48686;DHT22;34485;51.536;3.816;2023-03-01T11:16:29;8.60;99.90
48686;DHT22;34485;51.536;3.816;2023-03-01T11:19:03;8.50;99.90
48686;DHT22;34485;51.536;3.816;2023-03-01T11:21:32;8.20;91.70
48686;DHT22;34485;51.536;3.816;2023-03-01T11:24:01;8.50;91.90
48686;DHT22;34485;51.536;3.816;2023-03-01T11:26:28;8.70;90.90
48686;DHT22;34485;51.536;3.816;2023-03-01T11:29:00;8.60;90.80
48686;DHT22;34485;51.536;3.816;2023-03-01T11:31:28;8.50;91.40
48686;DHT22;34485;51.536;3.816;2023-03-01T11:34:11;8.30;93.50
48686;DHT22;34485;51.536;3.816;2023-03-01T11:36:46;8.10;93.80
48686;DHT22;34485;51.536;3.816;2023-03-01T11:39:38;7.90;92.90
48686;DHT22;34485;51.536;3.816;2023-03-01T11:42:21;7.70;94.10
48686;DHT22;34485;51.536;3.816;2023-03-01T11:48:37;7.30;93.80
48686;DHT22;34485;51.536;3.816;2023-03-01T11:51:12;7.20;94.90
48686;DHT22;34485;51.536;3.816;2023-03-01T11:56:43;6.90;95.80
48686;DHT22;34485;51.536;3.816;2023-03-01T11:59:30;7.00;95.60
48686;DHT22;34485;51.536;3.816;2023-03-01T12:17:06;7.10;94.00
48686;DHT22;34485;51.536;3.816;2023-03-01T12:20:11;7.10;94.90
48686;DHT22;34485;51.536;3.816;2023-03-01T12:46:58;7.30;94.60
48686;DHT22;34485;51.536;3.816;2023-03-01T12:52:03;7.30;93.10
48686;DHT22;34485;51.536;3.816;2023-03-01T12:54:36;7.20;94.80
48686;DHT22;34485;51.536;3.816;2023-03-01T12:57:23;7.20;93.90
48686;DHT22;34485;51.536;3.816;2023-03-01T13:00:15;7.20;94.70
48686;DHT22;34485;51.536;3.816;2023-03-01T13:11:01;7.20;95.00
48686;DHT22;34485;51.536;3.816;2023-03-01T13:13:28;7.20;96.10
48686;DHT22;34485;51.536;3.816;2023-03-01T13:15:55;7.20;94.30
48686;DHT22;34485;51.536;3.816;2023-03-01T13:21:01;7.10;94.00
48686;DHT22;34485;51.536;3.816;2023-03-01T13:23:32;7.10;94.10
48686;DHT22;34485;51.536;3.816;2023-03-01T13:33:50;7.10;93.00
48686;DHT22;34485;51.536;3.816;2023-03-01T13:50:02;7.20;95.50
48686;DHT22;34485;51.536;3.816;2023-03-01T13:52:48;7.20;94.10
48686;DHT22;34485;51.536;3.816;2023-03-01T13:55:18;7.20;95.90
48686;DHT22;34485;51.536;3.816;2023-03-01T13:57:48;7.10;96.00
48686;DHT22;34485;51.536;3.816;2023-03-01T14:00:54;7.20;95.90
48686;DHT22;34485;51.536;3.816;2023-03-01T14:03:20;7.20;94.90
48686;DHT22;34485;51.536;3.816;2023-03-01T14:06:09;7.10;94.90
48686;DHT22;34485;51.536;3.816;2023-03-01T14:08:37;7.10;95.60
48686;DHT22;34485;51.536;3.816;2023-03-01T14:19:29;7.10;95.50
48686;DHT22;34485;51.536;3.816;2023-03-01T14:25:06;7.10;95.80
48686;DHT22;34485;51.536;3.816;2023-03-01T14:27:41;7.10;95.30
48686;DHT22;34485;51.536;3.816;2023-03-01T14:30:27;7.10;95.50
48686;DHT22;34485;51.536;3.816;2023-03-01T14:33:01;7.10;95.20
48686;DHT22;34485;51.536;3.816;2023-03-01T14:35:30;7.10;95.50
48686;DHT22;34485;51.536;3.816;2023-03-01T14:37:56;7.10;95.10
48686;DHT22;34485;51.536;3.816;2023-03-01T14:40:22;7.10;95.30
48686;DHT22;34485;51.536;3.816;2023-03-01T14:42:49;7.00;94.20
48686;DHT22;34485;51.536;3.816;2023-03-01T14:45:15;7.00;95.50
48686;DHT22;34485;51.536;3.816;2023-03-01T14:47:41;7.00;96.10
48686;DHT22;34485;51.536;3.816;2023-03-01T14:50:28;7.10;97.00
48686;DHT22;34485;51.536;3.816;2023-03-01T14:52:58;7.10;95.60
48686;DHT22;34485;51.536;3.816;2023-03-01T14:55:31;7.10;94.90
48686;DHT22;34485;51.536;3.816;2023-03-01T14:57:58;7.00;94.50
48686;DHT22;34485;51.536;3.816;2023-03-01T15:00:29;7.00;94.90
48686;DHT22;34485;51.536;3.816;2023-03-01T15:02:57;7.00;96.30
48686;DHT22;34485;51.536;3.816;2023-03-01T15:05:35;7.00;95.50
48686;DHT22;34485;51.536;3.816;2023-03-01T15:08:02;7.00;95.50
48686;DHT22;34485;51.536;3.816;2023-03-01T15:10:32;7.00;95.10
48686;DHT22;34485;51.536;3.816;2023-03-01T15:13:24;7.00;95.00
48686;DHT22;34485;51.536;3.816;2023-03-01T15:15:51;7.00;96.90
48686;DHT22;34485;51.536;3.816;2023-03-01T15:18:21;7.00;95.30
48686;DHT22;34485;51.536;3.816;2023-03-01T15:20:48;7.00;95.70
48686;DHT22;34485;51.536;3.816;2023-03-01T15:23:26;7.00;96.00
48686;DHT22;34485;51.536;3.816;2023-03-01T15:25:53;7.00;95.80
48686;DHT22;34485;51.536;3.816;2023-03-01T15:31:34;6.90;95.00
48686;DHT22;34485;51.536;3.816;2023-03-01T15:34:30;7.00;95.20
48686;DHT22;34485;51.536;3.816;2023-03-01T15:40:00;6.90;97.20
48686;DHT22;34485;51.536;3.816;2023-03-01T15:45:19;6.90;96.30
48686;DHT22;34485;51.536;3.816;2023-03-01T15:50:56;6.80;96.30
48686;DHT22;34485;51.536;3.816;2023-03-01T15:53:23;6.80;97.00
48686;DHT22;34485;51.536;3.816;2023-03-01T15:55:48;6.80;96.90
48686;DHT22;34485;51.536;3.816;2023-03-01T15:58:18;6.80;97.50
48686;DHT22;34485;51.536;3.816;2023-03-01T16:00:46;6.70;98.00
48686;DHT22;34485;51.536;3.816;2023-03-01T16:03:14;6.70;97.00
48686;DHT22;34485;51.536;3.816;2023-03-01T16:05:40;6.70;96.60
48686;DHT22;34485;51.536;3.816;2023-03-01T16:08:06;6.60;96.60
48686;DHT22;34485;51.536;3.816;2023-03-01T16:10:32;6.60;97.90
48686;DHT22;34485;51.536;3.816;2023-03-01T16:12:58;6.60;97.00
48686;DHT22;34485;51.536;3.816;2023-03-01T16:15:25;6.60;97.60
48686;DHT22;34485;51.536;3.816;2023-03-01T16:17:52;6.60;97.60
48686;DHT22;34485;51.536;3.816;2023-03-01T16:20:18;6.50;97.50
48686;DHT22;34485;51.536;3.816;2023-03-01T16:22:45;6.50;97.60
48686;DHT22;34485;51.536;3.816;2023-03-01T16:25:13;6.50;97.60
48686;DHT22;34485;51.536;3.816;2023-03-01T16:27:42;6.50;97.90
48686;DHT22;34485;51.536;3.816;2023-03-01T16:30:08;6.40;98.10
48686;DHT22;34485;51.536;3.816;2023-03-01T16:32:41;6.40;98.40
48686;DHT22;34485;51.536;3.816;2023-03-01T16:35:07;6.40;99.40
48686;DHT22;34485;51.536;3.816;2023-03-01T16:37:35;6.30;99.10
48686;DHT22;34485;51.536;3.816;2023-03-01T16:40:01;6.30;99.90
48686;DHT22;34485;51.536;3.816;2023-03-01T16:42:26;6.20;99.90
48686;DHT22;34485;51.536;3.816;2023-03-01T16:44:55;6.10;99.90
48686;DHT22;34485;51.536;3.816;2023-03-01T16:47:22;6.10;99.90
48686;DHT22;34485;51.536;3.816;2023-03-01T16:49:51;6.00;99.90
48686;DHT22;34485;51.536;3.816;2023-03-01T16:52:16;5.90;99.90
48686;DHT22;34485;51.536;3.816;2023-03-01T16:54:42;5.80;99.90
48686;DHT22;34485;51.536;3.816;2023-03-01T16:57:08;5.70;99.90
48686;DHT22;34485;51.536;3.816;2023-03-01T16:59:33;5.60;99.90
48686;DHT22;34485;51.536;3.816;2023-03-01T17:01:59;5.50;99.90
48686;DHT22;34485;51.536;3.816;2023-03-01T17:04:24;5.50;99.90
48686;DHT22;34485;51.536;3.816;2023-03-01T17:06:50;5.40;99.90
48686;DHT22;34485;51.536;3.816;2023-03-01T17:09:16;5.30;99.90
48686;DHT22;34485;51.536;3.816;2023-03-01T17:11:42;5.20;99.90
48686;DHT22;34485;51.536;3.816;2023-03-01T17:14:08;5.10;99.90
48686;DHT22;34485;51.536;3.816;2023-03-01T17:16:34;5.00;99.90
48686;DHT22;34485;51.536;3.816;2023-03-01T17:19:00;4.90;99.90
48686;DHT22;34485;51.536;3.816;2023-03-01T17:21:26;4.80;99.90
48686;DHT22;34485;51.536;3.816;2023-03-01T17:23:55;4.70;99.90
48686;DHT22;34485;51.536;3.816;2023-03-01T17:26:21;4.70;99.90
48686;DHT22;34485;51.536;3.816;2023-03-01T17:28:47;4.60;99.90
48686;DHT22;34485;51.536;3.816;2023-03-01T17:31:17;4.50;99.90
48686;DHT22;34485;51.536;3.816;2023-03-01T17:33:43;4.50;99.90
48686;DHT22;34485;51.536;3.816;2023-03-01T17:36:09;4.50;99.90
48686;DHT22;34485;51.536;3.816;2023-03-01T17:38:34;4.40;99.90
48686;DHT22;34485;51.536;3.816;2023-03-01T17:41:02;4.40;99.90
48686;DHT22;34485;51.536;3.816;2023-03-01T17:43:27;4.30;99.90
48686;DHT22;34485;51.536;3.816;2023-03-01T17:45:53;4.20;99.90
48686;DHT22;34485;51.536;3.816;2023-03-01T17:48:19;4.20;99.90
48686;DHT22;34485;51.536;3.816;2023-03-01T17:50:45;4.10;99.90
48686;DHT22;34485;51.536;3.816;2023-03-01T17:53:11;4.00;99.90
48686;DHT22;34485;51.536;3.816;2023-03-01T17:55:39;3.90;99.90
48686;DHT22;34485;51.536;3.816;2023-03-01T17:58:06;3.80;99.90
48686;DHT22;34485;51.536;3.816;2023-03-01T18:00:33;3.70;99.90
48686;DHT22;34485;51.536;3.816;2023-03-01T18:02:59;3.70;99.90
48686;DHT22;34485;51.536;3.816;2023-03-01T18:05:26;3.60;99.90
48686;DHT22;34485;51.536;3.816;2023-03-01T18:07:52;3.50;99.90
48686;DHT22;34485;51.536;3.816;2023-03-01T18:10:19;3.40;99.90
48686;DHT22;34485;51.536;3.816;2023-03-01T18:12:45;3.40;99.90
48686;DHT22;34485;51.536;3.816;2023-03-01T18:15:11;3.30;99.90
48686;DHT22;34485;51.536;3.816;2023-03-01T18:20:05;3.40;99.90
48686;DHT22;34485;51.536;3.816;2023-03-01T18:22:31;3.40;99.90
48686;DHT22;34485;51.536;3.816;2023-03-01T18:29:50;3.50;99.90
48686;DHT22;34485;51.536;3.816;2023-03-01T18:32:16;3.60;99.90
48686;DHT22;34485;51.536;3.816;2023-03-01T18:34:41;3.50;99.90
48686;DHT22;34485;51.536;3.816;2023-03-01T18:37:07;3.40;99.90
48686;DHT22;34485;51.536;3.816;2023-03-01T18:39:33;3.40;99.90
48686;DHT22;34485;51.536;3.816;2023-03-01T18:41:58;3.30;99.90
48686;DHT22;34485;51.536;3.816;2023-03-01T18:44:24;3.30;99.90
48686;DHT22;34485;51.536;3.816;2023-03-01T18:46:50;3.20;99.90
48686;DHT22;34485;51.536;3.816;2023-03-01T18:49:17;3.20;99.90
48686;DHT22;34485;51.536;3.816;2023-03-01T18:51:43;3.10;99.90
48686;DHT22;34485;51.536;3.816;2023-03-01T18:54:10;3.00;99.90
48686;DHT22;34485;51.536;3.816;2023-03-01T18:56:36;3.00;99.90
48686;DHT22;34485;51.536;3.816;2023-03-01T18:59:02;3.00;99.90
48686;DHT22;34485;51.536;3.816;2023-03-01T19:01:30;3.00;99.90
48686;DHT22;34485;51.536;3.816;2023-03-01T19:03:56;3.00;99.90
48686;DHT22;34485;51.536;3.816;2023-03-01T19:06:23;2.90;99.90
48686;DHT22;34485;51.536;3.816;2023-03-01T19:08:50;2.90;99.90
48686;DHT22;34485;51.536;3.816;2023-03-01T19:11:16;2.90;99.90
48686;DHT22;34485;51.536;3.816;2023-03-01T19:13:44;2.90;99.90